Townsend, Delaware
Current Conditions -  °F | °C
As of 10:51 PM on Monday 20 Oct 2014 (Local Time) from KILG Reporting Station
Clear Clear  
Wind Chill: 55°   Ceiling: Unl
Heat Index: 55°   Visibility: 10mi
Dew Point: 45°   Wind: 6mph
Humidity: 69%   Direction: 190°S
Pressure: 29.98"   Gusts: NA
Location:  39.4°N, 75.69°W
Report Text: KILG 210251Z 19005KT 10SM CLR 13/07 A2998 RMK AO2 SLP152 T01280072 56001
Loading
Personal Weather Stations






























Interactive Weather Map
Tropical Storm Tracking
New forecast layout! Learn more

10-Day Weather Forecast

Advertisements
Track Severe Weather on mobile